Terminal Aerodrome Forecast
Issued by NWS

Home | Current Version | Previous Version | Text Only | Print | Product List | Glossary On
Versions: 1 2 3 4 5 6 7 8 9 10 11 12 13 14 15 16 17
604
FTUS43 KDLH 272339
TAFHIB
TAF
KHIB 272339Z 2800/2824 14005KT P6SM VCTS SCT020 OVC040CB
      TEMPO 2800/2803 2SM TSRA BR SCT015 BKN020CB
     FM280300 00000KT P6SM VCSH SCT020 BKN035
     FM280600 00000KT 4SM BR SCT010
     FM280800 00000KT 1SM BR VCSH SCT001
      TEMPO 2808/2812 1/2SM FG OVC002
     FM281400 16005KT P6SM SCT020
     FM281800 17007KT P6SM BKN040=

USA.gov is the U.S. government's official web portal to all federal, state and local government web resources and services.